Αρχική σελίδα
METAR-TAF:

METAR-TAF

Αεροδρόμια :

Κορόρ, Babeldaob, Παλάου

γεωγραφικό πλάτος: 07-22N, γεωγραφικό μήκος: 134-32E, υψόμετρο: 54 μ

Παρών καιρός

Η αναφορά έγινε 17 λεπτά πριν, στις 03:50 UTC
Άνεμος 11 kt από Α/BA με ριπές μέχρι 19 kt
Θερμοκρασία 31°C
Υγρασία 75%
Πίεση 1008 hPa
Ορατότητα: 20.9 χλμ
Αρκετά νέφη σε ύψος 1500 πόδια, Σωρείτες καθέτου αναπτύξεως.
Αρκετά νέφη σε ύψος 13000 πόδια
Αρκετά νέφη σε ύψος 30000 πόδια

METAR: PTRO 250350Z 07011G19KT 13SM BKN015TCU BKN130 BKN300 31/26 A2978 RMK TCU NE AND W

Χρόνος: 13:07 (04:07 UTC)

Πρόγνωση Καιρού

Η αναφορά έγινε 4 ώρες και 32 λεπτά πριν, στις 23:35 UTC
Η πρόγνωση ισχύει από τις 25 στις 00 UTC έως τις 25 στις 24 UTC
Άνεμος 9 kt από Α/BA
Ορατότητα: 10 χλμ
Λίγα νέφη σε ύψος 1500 πόδια
Διάσπαρτα νέφη σε ύψος 11000 πόδια
Όμβροι σε κοντινή απόσταση,

TAF: PTRO 242335Z 2500/2524 07009KT P6SM VCSH FEW015 SCT110

Μετεωρολογικές αναφορές και προγνώσεις για περισσότερα από 4000 αεροδρόμια (δελτία METAR και TAF).

Οι διαθέσιμοι σταθμοί απεικονίζονται στο χάρτη με κίτρινες και κόκκινες κουκκίδες.

Μετακινήστε το ποντίκι πάνω από τις κουκκίδες για να δείτε το όνομα του σταθμού.

Στη συνέχεια, κάντε κλικ για να δείτε τις μετεωρολογικές αναφορές και τις προγνώσεις καιρού.

Για να αλλάξετε το χάρτη: κάντε κλικ στα πράσινα κουμπιά με τον μαύρο σταυρό για να ζουμάρετε, στο πράσινο κουμπί με την παύλα για να αφαιρέσετε το ζουμ ή στα πράσινα βέλη για να αντιπαραβάλλετε χάρτες.


METAR-TAF: